createdAt,value
2022-11-21T00:01:18.008Z,5.88
2022-11-21T00:03:45.909Z,16.27
2022-11-21T00:06:13.623Z,10.15
2022-11-21T00:08:41.550Z,9.93
2022-11-21T00:11:09.085Z,10.50
2022-11-21T00:13:36.560Z,9.07
2022-11-21T00:16:12.963Z,18.13
2022-11-21T00:18:40.656Z,10.13
2022-11-21T00:21:13.644Z,8.77
2022-11-21T00:23:41.017Z,19.40
2022-11-21T00:26:10.055Z,9.60
2022-11-21T00:28:37.789Z,12.05
2022-11-21T00:31:06.030Z,12.30
2022-11-21T00:33:35.860Z,9.85
2022-11-21T00:36:08.242Z,10.38
2022-11-21T00:38:36.222Z,12.13
2022-11-21T00:41:03.862Z,9.63
2022-11-21T00:43:31.320Z,11.73
2022-11-21T00:46:01.337Z,9.75
2022-11-21T00:48:29.952Z,23.27
2022-11-21T00:50:57.435Z,12.48
2022-11-21T00:53:24.763Z,9.48
2022-11-21T00:55:52.082Z,13.63
2022-11-21T00:58:19.411Z,10.38
2022-11-21T01:00:46.969Z,11.88
2022-11-21T01:03:14.338Z,15.73
2022-11-21T01:05:41.898Z,14.73
2022-11-21T01:08:09.297Z,18.67
2022-11-21T01:10:37.103Z,12.18
2022-11-21T01:13:04.500Z,9.82
2022-11-21T01:15:31.911Z,10.93
2022-11-21T01:17:59.208Z,11.18
2022-11-21T01:20:26.561Z,13.90
2022-11-21T01:22:53.874Z,12.27
2022-11-21T01:25:21.231Z,12.93
2022-11-21T01:27:48.583Z,11.55
2022-11-21T01:30:16.061Z,15.88
2022-11-21T01:32:43.446Z,10.68
2022-11-21T01:35:10.881Z,9.57
2022-11-21T01:37:38.251Z,10.20
2022-11-21T01:40:05.927Z,15.57
2022-11-21T01:43:00.222Z,8.50
2022-11-21T01:46:05.469Z,9.75
2022-11-21T01:48:44.961Z,8.15
2022-11-21T01:51:37.883Z,18.73
2022-11-21T01:54:17.166Z,17.48
2022-11-21T01:56:59.501Z,11.55
2022-11-21T01:59:38.993Z,17.95
2022-11-21T02:02:08.909Z,9.98
2022-11-21T02:04:36.995Z,16.98
2022-11-21T02:07:06.968Z,8.98
2022-11-21T02:09:41.076Z,18.80
2022-11-21T02:12:30.666Z,18.27
2022-11-21T02:14:59.322Z,9.50
2022-11-21T02:17:29.979Z,17.08
2022-11-21T02:20:07.210Z,15.77
2022-11-21T02:22:49.249Z,16.05
2022-11-21T02:25:38.091Z,10.40
2022-11-21T02:28:11.534Z,16.23
2022-11-21T02:30:41.382Z,10.10
2022-11-21T02:33:09.179Z,12.02
2022-11-21T02:35:36.642Z,11.07
2022-11-21T02:38:26.971Z,10.35
2022-11-21T02:41:26.354Z,8.82
2022-11-21T02:44:02.637Z,14.30
2022-11-21T02:46:30.074Z,11.90
2022-11-21T02:48:59.166Z,13.43
2022-11-21T02:51:26.542Z,15.73
2022-11-21T02:53:53.935Z,13.90
2022-11-21T02:56:21.341Z,16.10
2022-11-21T02:58:49.162Z,16.35
2022-11-21T03:01:16.629Z,9.35
2022-11-21T03:03:44.038Z,19.42
2022-11-21T03:06:11.427Z,13.85
2022-11-21T03:08:38.818Z,9.05
2022-11-21T03:11:06.159Z,11.30
2022-11-21T03:13:33.513Z,12.70
2022-11-21T03:16:00.885Z,8.63
2022-11-21T03:18:28.266Z,13.73
2022-11-21T03:20:57.408Z,10.98
2022-11-21T03:23:24.806Z,12.10
2022-11-21T03:25:52.165Z,14.70
2022-11-21T03:28:19.509Z,7.05
2022-11-21T03:30:47.494Z,12.05
2022-11-21T03:33:14.878Z,15.02
2022-11-21T03:35:42.225Z,9.65
2022-11-21T03:38:09.576Z,14.38
2022-11-21T03:40:36.973Z,12.05
2022-11-21T03:43:07.934Z,12.98
2022-11-21T03:45:35.300Z,13.10
2022-11-21T03:48:02.688Z,14.50
2022-11-21T03:50:30.059Z,11.15
2022-11-21T03:52:57.412Z,10.25
2022-11-21T03:55:24.800Z,10.40
2022-11-21T03:57:52.126Z,15.63
2022-11-21T04:00:19.731Z,13.98
2022-11-21T04:02:47.135Z,13.70
2022-11-21T04:05:14.554Z,12.85
2022-11-21T04:07:42.041Z,17.30
2022-11-21T04:10:09.955Z,12.70
2022-11-21T04:12:37.375Z,12.48
2022-11-21T04:15:09.310Z,14.02
2022-11-21T04:17:39.574Z,12.55
2022-11-21T04:20:07.287Z,15.63
2022-11-21T04:22:34.635Z,18.80
2022-11-21T04:25:02.088Z,16.85
2022-11-21T04:27:29.433Z,13.60
2022-11-21T04:29:56.769Z,19.67
2022-11-21T04:32:24.129Z,16.00
2022-11-21T04:34:51.454Z,14.48
2022-11-21T04:37:18.842Z,11.32
2022-11-21T04:39:46.177Z,19.50
2022-11-21T04:42:13.475Z,14.60
2022-11-21T04:44:40.843Z,15.20
2022-11-21T04:47:08.182Z,9.68
2022-11-21T04:49:35.502Z,14.25
2022-11-21T04:52:03.136Z,10.05
2022-11-21T04:54:30.712Z,8.98
2022-11-21T04:56:58.617Z,10.95
2022-11-21T04:59:26.008Z,18.50
2022-11-21T05:01:53.364Z,16.60
2022-11-21T05:04:20.766Z,11.00
2022-11-21T05:06:48.125Z,14.70
2022-11-21T05:09:15.445Z,14.13
2022-11-21T05:12:01.467Z,10.55
2022-11-21T05:14:29.095Z,9.23
2022-11-21T05:16:56.573Z,9.88
2022-11-21T05:19:23.888Z,20.48
2022-11-21T05:21:51.458Z,19.23
2022-11-21T05:24:18.852Z,10.82
2022-11-21T05:26:46.229Z,11.00
2022-11-21T05:29:13.776Z,14.57
2022-11-21T05:31:41.306Z,20.83
2022-11-21T05:34:08.865Z,14.60
2022-11-21T05:36:36.263Z,16.80
2022-11-21T05:39:03.691Z,13.23
2022-11-21T05:41:31.243Z,14.88
2022-11-21T05:43:58.712Z,13.93
2022-11-21T05:46:26.962Z,10.13
2022-11-21T05:48:55.328Z,16.20
2022-11-21T05:51:22.825Z,14.88
2022-11-21T05:53:50.379Z,11.63
2022-11-21T05:56:19.597Z,15.68
2022-11-21T05:58:47.167Z,17.10
2022-11-21T06:01:15.778Z,14.60
2022-11-21T06:03:43.419Z,10.32
2022-11-21T06:06:14.163Z,10.02
2022-11-21T06:08:47.649Z,14.80
2022-11-21T06:11:16.509Z,11.70
2022-11-21T06:13:44.373Z,15.38
2022-11-21T06:16:18.273Z,13.73
2022-11-21T06:18:55.137Z,11.95
2022-11-21T06:21:28.351Z,10.15
2022-11-21T06:23:57.839Z,16.90
2022-11-21T06:26:26.813Z,12.00
2022-11-21T06:28:54.862Z,13.88
2022-11-21T06:31:24.512Z,16.90
2022-11-21T06:33:56.735Z,15.25
2022-11-21T06:36:24.770Z,12.70
2022-11-21T06:38:54.910Z,18.65
2022-11-21T06:41:25.824Z,12.35
2022-11-21T06:43:53.419Z,18.58
2022-11-21T06:46:20.736Z,13.95
2022-11-21T06:48:48.087Z,16.80
2022-11-21T06:51:24.075Z,11.27
2022-11-21T06:53:56.472Z,16.50
2022-11-21T06:56:25.852Z,12.75
2022-11-21T06:58:53.538Z,12.32
2022-11-21T07:01:20.921Z,16.40
2022-11-21T07:03:48.283Z,16.67
2022-11-21T07:06:15.818Z,9.10
2022-11-21T07:08:43.151Z,13.27
2022-11-21T07:11:29.301Z,8.13
2022-11-21T07:13:56.697Z,21.42
2022-11-21T07:16:26.347Z,12.43
2022-11-21T07:18:54.007Z,12.50
2022-11-21T07:21:21.380Z,15.90
2022-11-21T07:23:48.913Z,13.95
2022-11-21T07:26:16.275Z,15.35
2022-11-21T07:28:43.833Z,16.75
2022-11-21T07:31:13.956Z,15.05
2022-11-21T07:33:43.590Z,18.85
2022-11-21T07:36:12.291Z,18.25
2022-11-21T07:38:41.413Z,15.43
2022-11-21T07:41:10.195Z,13.82
2022-11-21T07:43:37.783Z,14.48
2022-11-21T07:46:05.200Z,12.65
2022-11-21T07:48:32.599Z,18.83
2022-11-21T07:51:03.963Z,15.57
2022-11-21T07:53:31.374Z,9.60
2022-11-21T07:55:59.783Z,17.80
2022-11-21T07:58:27.199Z,10.32
2022-11-21T08:00:54.660Z,17.02
2022-11-21T08:03:22.701Z,25.25
2022-11-21T08:05:50.157Z,17.30
2022-11-21T08:08:17.553Z,18.50
2022-11-21T08:10:46.031Z,14.95
2022-11-21T08:13:14.141Z,16.38
2022-11-21T08:15:42.054Z,17.27
2022-11-21T08:18:11.796Z,9.50
2022-11-21T08:20:39.777Z,20.13
2022-11-21T08:23:07.634Z,30.23
2022-11-21T08:25:37.833Z,14.43
2022-11-21T08:28:05.720Z,16.90
2022-11-21T08:30:34.543Z,10.73
2022-11-21T08:33:02.225Z,19.55
2022-11-21T08:35:30.175Z,17.23
2022-11-21T08:37:59.214Z,15.23
2022-11-21T08:40:28.045Z,9.18
2022-11-21T08:42:59.421Z,20.42
2022-11-21T08:45:26.795Z,10.95
2022-11-21T08:47:54.806Z,10.85
2022-11-21T08:50:23.216Z,18.15
2022-11-21T08:52:50.670Z,17.63
2022-11-21T08:55:18.139Z,13.98
2022-11-21T08:57:45.472Z,13.63
2022-11-21T09:00:13.915Z,13.40
2022-11-21T09:02:41.542Z,15.30
2022-11-21T09:05:09.495Z,14.77
2022-11-21T09:07:37.324Z,19.42
2022-11-21T09:10:05.380Z,13.38
2022-11-21T09:12:32.801Z,15.02
2022-11-21T09:15:18.580Z,16.95
2022-11-21T09:18:04.094Z,16.75
2022-11-21T09:20:42.815Z,9.32
2022-11-21T09:23:12.593Z,11.48
2022-11-21T09:25:40.381Z,19.77
2022-11-21T09:28:09.636Z,13.10
2022-11-21T09:30:37.472Z,20.23
2022-11-21T09:33:07.504Z,17.08
2022-11-21T09:35:35.074Z,12.23
2022-11-21T09:38:03.607Z,19.73
2022-11-21T09:40:32.620Z,13.13
2022-11-21T09:43:06.134Z,15.52
2022-11-21T09:45:37.360Z,8.98
2022-11-21T09:48:12.631Z,18.38
2022-11-21T09:50:48.213Z,12.73
2022-11-21T09:53:34.641Z,15.80
2022-11-21T09:56:14.040Z,16.40
2022-11-21T09:59:05.325Z,10.75
2022-11-21T10:01:32.922Z,12.82
2022-11-21T10:04:02.298Z,16.48
2022-11-21T10:06:32.825Z,7.50
2022-11-21T10:09:26.330Z,16.83
2022-11-21T10:12:40.011Z,15.65
2022-11-21T10:15:13.323Z,16.08
2022-11-21T10:17:55.578Z,19.63
2022-11-21T10:20:37.430Z,16.35
2022-11-21T10:23:19.529Z,20.45
2022-11-21T10:26:06.680Z,15.63
2022-11-21T10:28:55.404Z,7.03
2022-11-21T10:31:23.025Z,21.45
2022-11-21T10:33:54.313Z,20.15
2022-11-21T10:36:33.636Z,30.05
2022-11-21T10:39:07.441Z,15.82
2022-11-21T10:41:46.177Z,15.13
2022-11-21T10:44:43.315Z,20.88
2022-11-21T10:47:28.970Z,16.00
2022-11-21T10:50:31.434Z,16.88
2022-11-21T10:53:37.841Z,16.80
2022-11-21T10:56:12.641Z,19.48
2022-11-21T10:58:51.645Z,22.02
2022-11-21T11:01:27.883Z,18.60
2022-11-21T11:07:00.164Z,12.35
2022-11-21T11:09:28.376Z,19.77
2022-11-21T11:12:18.749Z,21.92
2022-11-21T11:14:51.999Z,21.17
2022-11-21T11:17:33.497Z,20.23
2022-11-21T11:20:31.430Z,18.58
2022-11-21T11:22:58.951Z,10.88
2022-11-21T11:25:26.524Z,10.23
2022-11-21T11:27:53.941Z,15.70
2022-11-21T11:30:21.506Z,23.27
2022-11-21T11:32:48.911Z,23.23
2022-11-21T11:35:34.198Z,16.00
2022-11-21T11:38:04.348Z,20.08
2022-11-21T11:40:42.485Z,21.08
2022-11-21T11:43:34.206Z,24.17
2022-11-21T11:46:48.036Z,17.00
2022-11-21T11:49:56.889Z,20.27
2022-11-21T11:52:28.025Z,16.85
2022-11-21T11:57:37.175Z,17.52
2022-11-21T12:00:04.609Z,21.75
2022-11-21T12:02:47.099Z,20.80
2022-11-21T12:05:29.680Z,13.35
2022-11-21T12:11:16.032Z,24.95
2022-11-21T12:13:44.180Z,20.60
2022-11-21T12:16:14.422Z,23.38
2022-11-21T12:18:51.467Z,24.37
2022-11-21T12:21:19.643Z,19.83
2022-11-21T12:23:58.015Z,23.95
2022-11-21T12:26:33.077Z,26.67
2022-11-21T12:29:32.385Z,16.52
2022-11-21T12:32:05.568Z,13.88
2022-11-21T12:35:18.462Z,24.52
2022-11-21T12:37:51.360Z,19.20
2022-11-21T12:40:43.163Z,26.08
2022-11-21T12:43:43.107Z,22.90
2022-11-21T12:46:59.825Z,23.67
2022-11-21T12:49:54.387Z,22.30
2022-11-21T12:53:09.226Z,23.00
2022-11-21T12:55:40.681Z,24.75
2022-11-21T12:58:13.814Z,15.82
2022-11-21T13:01:02.065Z,16.58
2022-11-21T13:03:44.845Z,17.08
2022-11-21T13:06:19.355Z,13.57
2022-11-21T13:08:49.572Z,8.18
2022-11-21T13:12:01.386Z,12.25
2022-11-21T13:14:36.500Z,15.10
2022-11-21T13:17:11.986Z,12.90
2022-11-21T13:20:06.374Z,9.63
2022-11-21T13:22:36.477Z,16.40
2022-11-21T13:25:04.868Z,11.73
2022-11-21T13:27:41.827Z,6.80
2022-11-21T13:30:10.423Z,14.18
2022-11-21T13:32:45.425Z,11.30
2022-11-21T13:35:21.765Z,14.60
2022-11-21T13:37:52.544Z,12.90
2022-11-21T13:40:31.667Z,9.65
2022-11-21T13:43:34.192Z,12.00
2022-11-21T13:46:02.107Z,7.43
2022-11-21T13:48:35.489Z,7.63
2022-11-21T13:51:11.662Z,6.05
2022-11-21T13:53:58.672Z,5.25
2022-11-21T13:56:59.204Z,6.38
2022-11-21T13:59:40.547Z,12.35
2022-11-21T14:02:19.086Z,4.80
2022-11-21T14:05:00.568Z,5.57
2022-11-21T14:07:34.379Z,8.90
2022-11-21T14:10:17.659Z,10.68
2022-11-21T14:12:49.743Z,4.57
2022-11-21T14:15:41.429Z,7.38
2022-11-21T14:18:35.741Z,10.90
2022-11-21T14:21:04.543Z,3.58
2022-11-21T14:23:34.594Z,6.15
2022-11-21T14:26:21.266Z,10.00
2022-11-21T14:28:48.859Z,4.80
2022-11-21T14:31:16.253Z,6.28
2022-11-21T14:33:45.238Z,1.92
2022-11-21T14:36:27.663Z,7.60
2022-11-21T14:39:35.359Z,8.35
2022-11-21T14:41:57.190Z,4.85
2022-11-21T14:44:25.037Z,2.78
2022-11-21T14:47:19.851Z,3.75
2022-11-21T14:49:54.708Z,5.43
2022-11-21T14:52:31.595Z,11.38
2022-11-21T14:57:53.274Z,5.03
2022-11-21T15:00:57.296Z,7.22
2022-11-21T15:03:23.392Z,6.50
2022-11-21T15:06:05.752Z,10.23
2022-11-21T15:11:29.826Z,5.80
2022-11-21T15:14:20.290Z,8.32
2022-11-21T15:16:51.337Z,6.45
2022-11-21T15:19:24.573Z,10.95
2022-11-21T15:21:55.230Z,8.65
2022-11-21T15:24:42.835Z,6.72
2022-11-21T15:27:28.573Z,9.13
2022-11-21T15:30:22.063Z,6.80
2022-11-21T15:33:11.402Z,9.52
2022-11-21T15:36:05.061Z,10.32
2022-11-21T15:38:48.967Z,9.32
2022-11-21T15:41:16.286Z,9.38
2022-11-21T15:43:50.907Z,6.38
2022-11-21T15:46:28.402Z,8.10
2022-11-21T15:48:58.712Z,6.65
2022-11-21T15:51:59.721Z,7.63
2022-11-21T15:54:22.681Z,4.07
2022-11-21T15:56:50.106Z,4.40
2022-11-21T15:59:19.701Z,10.70
2022-11-21T16:01:47.096Z,7.00
2022-11-21T16:04:14.823Z,9.02
2022-11-21T16:06:42.310Z,13.88
2022-11-21T16:09:09.766Z,8.30
2022-11-21T16:11:38.087Z,3.55
2022-11-21T16:14:06.607Z,13.10
2022-11-21T16:16:42.603Z,12.23
2022-11-21T16:19:14.864Z,9.38
2022-11-21T16:21:42.481Z,7.00
2022-11-21T16:24:10.077Z,8.05
2022-11-21T16:26:37.648Z,10.30
2022-11-21T16:29:05.790Z,9.27
2022-11-21T16:31:33.277Z,6.93
2022-11-21T16:34:00.995Z,7.45
2022-11-21T16:36:30.322Z,18.17
2022-11-21T16:39:01.799Z,11.65
2022-11-21T16:41:29.623Z,20.58
2022-11-21T16:43:57.190Z,15.10
2022-11-21T16:46:25.926Z,11.45
2022-11-21T16:49:03.078Z,11.70
2022-11-21T16:51:30.906Z,7.25
2022-11-21T16:54:01.718Z,6.10
2022-11-21T16:56:33.090Z,7.75
2022-11-21T16:59:00.511Z,7.25
2022-11-21T17:01:28.860Z,8.80
2022-11-21T17:03:56.429Z,8.77
2022-11-21T17:06:29.295Z,9.73
2022-11-21T17:08:59.765Z,11.20
2022-11-21T17:11:30.514Z,9.20
2022-11-21T17:14:03.718Z,7.88
2022-11-21T17:16:32.497Z,11.15
2022-11-21T17:19:02.149Z,5.47
2022-11-21T17:21:30.579Z,3.13
2022-11-21T17:23:58.647Z,1.40
2022-11-21T17:26:27.792Z,3.65
2022-11-21T17:28:57.906Z,2.13
2022-11-21T17:31:25.674Z,1.88
2022-11-21T17:33:55.428Z,3.05
2022-11-21T17:36:25.199Z,1.48
2022-11-21T17:38:53.090Z,0.63
2022-11-21T17:41:22.231Z,1.58
2022-11-21T17:43:52.983Z,0.68
2022-11-21T17:46:20.363Z,0.75
2022-11-21T17:48:55.065Z,2.50
2022-11-21T17:51:26.171Z,2.38
2022-11-21T17:53:53.776Z,1.02
2022-11-21T17:56:23.462Z,1.75
2022-11-21T17:58:52.145Z,0.63
2022-11-21T18:01:20.755Z,0.82
2022-11-21T18:03:53.451Z,1.35
2022-11-21T18:06:20.905Z,1.70
2022-11-21T18:08:48.780Z,1.52
2022-11-21T18:11:19.675Z,2.63
2022-11-21T18:13:48.380Z,4.13
2022-11-21T18:16:18.713Z,1.98
2022-11-21T18:18:46.160Z,0.77
2022-11-21T18:21:16.181Z,5.25
2022-11-21T18:23:47.208Z,2.78
2022-11-21T18:26:21.027Z,3.55
2022-11-21T18:29:01.641Z,1.67
2022-11-21T18:31:38.006Z,1.70
2022-11-21T18:34:06.808Z,0.80
2022-11-21T18:36:34.259Z,6.07
2022-11-21T18:39:08.761Z,3.58
2022-11-21T18:41:39.524Z,1.83
2022-11-21T18:44:08.987Z,3.25
2022-11-21T18:46:37.642Z,12.07
2022-11-21T18:49:06.820Z,8.15
2022-11-21T18:51:36.256Z,10.63
2022-11-21T18:54:08.276Z,8.43
2022-11-21T18:56:38.082Z,6.80
2022-11-21T18:59:06.553Z,8.40
2022-11-21T19:01:36.629Z,18.90
2022-11-21T19:04:04.837Z,22.17
2022-11-21T19:06:32.297Z,16.48
2022-11-21T19:08:59.921Z,13.98
2022-11-21T19:11:29.403Z,12.07
2022-11-21T19:13:59.226Z,11.65
2022-11-21T19:16:28.465Z,6.25
2022-11-21T19:19:26.417Z,9.10
2022-11-21T19:21:44.015Z,7.50
2022-11-21T19:24:16.468Z,10.95
2022-11-21T19:26:44.334Z,6.07
2022-11-21T19:29:11.716Z,7.70
2022-11-21T19:31:45.294Z,11.52
2022-11-21T19:34:14.909Z,9.90
2022-11-21T19:36:42.888Z,12.93
2022-11-21T19:39:10.880Z,17.02
2022-11-21T19:41:38.287Z,7.82
2022-11-21T19:44:05.871Z,14.52
2022-11-21T19:46:35.508Z,11.43
2022-11-21T19:49:03.844Z,11.70
2022-11-21T19:51:34.104Z,7.57
2022-11-21T19:54:06.421Z,11.60
2022-11-21T19:56:34.332Z,18.95
2022-11-21T19:59:01.784Z,7.38
2022-11-21T20:01:31.116Z,14.05
2022-11-21T20:04:00.877Z,15.07
2022-11-21T20:06:36.982Z,17.60
2022-11-21T20:09:08.637Z,4.85
2022-11-21T20:11:36.930Z,10.90
2022-11-21T20:14:05.735Z,14.55
2022-11-21T20:16:36.224Z,12.25
2022-11-21T20:19:09.800Z,7.63
2022-11-21T20:21:38.184Z,11.52
2022-11-21T20:24:06.386Z,14.93
2022-11-21T20:26:34.726Z,19.58
2022-11-21T20:29:02.860Z,12.65
2022-11-21T20:31:32.531Z,14.85
2022-11-21T20:34:02.361Z,12.40
2022-11-21T20:36:31.655Z,10.80
2022-11-21T20:39:01.098Z,12.25
2022-11-21T20:41:31.357Z,8.38
2022-11-21T20:46:51.945Z,13.35
2022-11-21T20:49:19.262Z,8.88
2022-11-21T20:54:35.202Z,13.07
2022-11-21T20:57:02.602Z,9.23
2022-11-21T20:59:30.174Z,12.55
2022-11-21T21:01:57.797Z,19.90
2022-11-21T21:04:25.157Z,15.38
2022-11-21T21:06:52.606Z,11.65
2022-11-21T21:09:19.913Z,13.60
2022-11-21T21:11:54.407Z,9.90
2022-11-21T21:14:22.355Z,6.72
2022-11-21T21:16:50.403Z,9.88
2022-11-21T21:19:18.050Z,12.07
2022-11-21T21:21:45.923Z,6.80
2022-11-21T21:24:14.419Z,13.23
2022-11-21T21:26:45.518Z,9.77
2022-11-21T21:31:51.050Z,9.68
2022-11-21T21:34:20.979Z,10.27
2022-11-21T21:36:49.118Z,14.70
2022-11-21T21:39:16.591Z,14.05
2022-11-21T21:41:45.908Z,14.60
2022-11-21T21:44:14.049Z,5.82
2022-11-21T21:46:41.612Z,4.18
2022-11-21T21:49:09.125Z,11.50
2022-11-21T21:51:37.349Z,12.05
2022-11-21T21:54:05.043Z,8.52
2022-11-21T21:56:32.631Z,13.50
2022-11-21T21:59:00.008Z,9.95
2022-11-21T22:01:28.935Z,10.43
2022-11-21T22:04:04.683Z,6.72
2022-11-21T22:06:35.605Z,11.80
2022-11-21T22:09:03.621Z,15.98
2022-11-21T22:11:35.286Z,5.03
2022-11-21T22:14:06.066Z,15.75
2022-11-21T22:16:33.474Z,8.65
2022-11-21T22:19:00.893Z,8.93
2022-11-21T22:21:33.541Z,10.75
2022-11-21T22:26:51.034Z,6.53
2022-11-21T22:29:18.458Z,10.73
2022-11-21T22:31:45.801Z,10.25
2022-11-21T22:34:14.174Z,14.20
2022-11-21T22:36:42.143Z,11.85
2022-11-21T22:39:09.615Z,8.00
2022-11-21T22:41:37.094Z,9.75
2022-11-21T22:44:04.701Z,4.38
2022-11-21T22:46:32.151Z,10.27
2022-11-21T22:48:59.879Z,7.18
2022-11-21T22:51:29.557Z,12.68
2022-11-21T22:53:57.601Z,7.38
2022-11-21T23:00:48.139Z,5.20
2022-11-21T23:03:15.497Z,7.85
2022-11-21T23:05:42.849Z,16.10
2022-11-21T23:08:10.246Z,12.80
2022-11-21T23:10:37.692Z,15.85
2022-11-21T23:13:05.082Z,5.18
2022-11-21T23:15:32.431Z,8.63
2022-11-21T23:17:59.788Z,9.30
2022-11-21T23:20:27.172Z,5.72
2022-11-21T23:22:56.582Z,4.10
2022-11-21T23:25:23.981Z,4.10
2022-11-21T23:27:51.568Z,12.45
2022-11-21T23:30:18.971Z,5.68
2022-11-21T23:32:46.358Z,3.10
2022-11-21T23:35:13.834Z,8.48
2022-11-21T23:37:41.145Z,6.65
2022-11-21T23:40:09.213Z,6.10
2022-11-21T23:42:36.578Z,3.13
2022-11-21T23:45:04.171Z,2.15
2022-11-21T23:47:31.519Z,11.40
2022-11-21T23:49:58.890Z,9.77
2022-11-21T23:52:26.256Z,6.85
2022-11-21T23:54:53.582Z,7.93
2022-11-21T23:57:21.019Z,7.30
2022-11-21T23:59:48.399Z,9.15
